Historyczne dane pomiarowe

Dodano dane terminowe – wersja testowa.

Dane z okresu 1951-2019

Wersja bazy: 1.34 [2019-03-16, lista zmian], aktualizacja planowana na 2019-04-15

Dane meteo z obszaru Polski uzyskane na podstawie danych udostępnionych przez Instytut Meteorologii i Gospodarki Wodnej – Państwowy Instytut Badawczy.

 

Wybierz Datę:    

       

TemperaturaWilgotnośćWiatrCiśnienieOpadyŚniegCzas trwania zjawisk
 Stacja t tx tn tng RH VA  wxwx mslp ppp RRR   cm mm wxwxwxwxwxwxwx
1956-11-09 -7.5 -5.2-11.8-14.2 82.3- 6.0 0.3---- 0.0-- 14---------
1956-11-08 -8.6 -2.9 -9.7-11.7 86.3- 1.3 2.0---- 0.0-- 16---------
1956-11-07 -2.1 -0.2 -3.4 -6.6 85.3- 6.0 5.0---- 0.8-- 15---------
1956-11-06 -0.5 2.3 -1.5 -1.3 90.5- 6.7 5.3---- 5.7-- 1---------
1956-11-05 0.4 2.3 -6.4 -8.7 69.5- 5.3 3.7---- 0.2------------
1956-11-04 -2.7 2.9 -5.9 -8.8 78.0- 0.7 0.3---- 0.0------------
1956-11-03 -1.2 1.7 -2.5 -3.4 75.3- 4.0 3.3---- 0.0------------
1956-11-02 0.3 5.7 -5.1 -7.9 74.5- 3.7 1.0---- 0.0------------
1956-11-01 -3.0 4.9-11.9-12.6 58.5- 0.3 0.3---- 0.0------------
1956-10-31 -5.4 3.2 -8.4 -2.8 86.0- 5.0 2.0---- 0.1------------
1956-10-30 3.9 6.2 2.7 2.4 88.5- 7.3 1.0---- 0.4------------
1956-10-29 5.3 9.2 3.5 4.4 77.3- 6.3 4.7---- 0.8------------
1956-10-28 10.3 15.0 8.6 5.5 76.0- 5.0 3.7---- 0.6------------
1956-10-27 11.7 17.2 4.8 1.8 69.5- 5.7 2.0---- 0.0------------
1956-10-26 9.5 17.0 3.7 0.3 80.5- 3.0 1.7---- 0.0------------
1956-10-25 10.1 17.0 2.7 0.4 76.0- 0.0 2.0---- 0.0------------
1956-10-24 7.6 11.9 4.3 3.6 95.0- 8.0 0.0---- 0.0------------
1956-10-23 9.0 16.5 2.8 1.5 89.0- 1.0 1.3---- 0.0------------
1956-10-22 10.7 17.2 3.2 2.3 84.0- 1.3 1.3---- 0.0------------
1956-10-21 10.9 14.4 8.8 8.0 89.8- 6.7 0.3---- 0.0------------
1956-10-20 10.3 12.2 9.5 8.2 85.0- 8.0 1.3---- 0.9------------
1956-10-19 10.9 12.8 7.7 6.3 59.5- 8.0 4.7---- 0.0------------
1956-10-18 7.3 14.9 -1.8 -2.8 69.0- 5.3 3.0---- 0.2------------
1956-10-17 2.7 11.0 -3.0 -4.3 79.8- 0.0 0.3---- 0.0------------
1956-10-16 2.3 9.0 -3.0 -4.5 88.0- 4.3 0.7---- 0.0------------
1956-10-15 2.7 7.9 -1.0 -3.1 86.3- 1.3 1.0---- 0.0------------
1956-10-14 6.4 10.8 4.2 5.7 68.5- 4.3 4.0---- 2.7------------
1956-10-13 7.9 9.5 6.0 6.0 65.8- 8.0 5.7---- 0.1------------
1956-10-12 6.7 8.5 0.4 -1.0 70.0- 5.3 2.0---- 0.0------------
1956-10-11 2.0 6.2 -0.9 -2.5 79.8- 5.0 1.0---- 0.0------------
1956-10-10 4.3 6.1 0.7 1.6 68.3- 6.0 4.3---- 0.0------------
1956-10-09 3.2 9.5 -2.3 -3.4 81.5- 5.0 0.3---- 0.0------------
1956-10-08 3.4 9.1 -1.3 -2.5 86.0- 1.7 0.3---- 0.0------------
1956-10-07 5.5 8.9 1.4 2.2 70.0- 3.3 5.0---- 0.3------------
1956-10-06 7.0 15.3 2.1 6.1 84.8- 8.0 5.0---- 16.2------------
1956-10-05 10.4 14.1 9.3 8.0 86.3- 5.0 3.0---- 0.8------------
1956-10-04 12.0 17.2 9.7 11.1 88.8- 8.0 2.0---- 2.6------------
1956-10-03 18.6 23.2 15.6 13.9 61.8- 5.3 6.7---- 0.7------------
1956-10-02 17.9 23.5 8.8 6.7 64.0- 0.3 6.7---- 0.0------------
1956-10-01 17.3 23.6 8.9 7.2 69.3- 1.3 3.7---- 0.0------------
1956-09-30 14.2 21.7 10.3 8.8 88.0- 2.0 0.7---- 0.0------------
1956-09-29 16.3 20.1 10.4 8.2 71.8- 4.3 5.0---- 0.0------------
1956-09-28 13.8 17.2 12.3 10.4 85.3- 4.3 1.7---- 0.3------------
1956-09-27 16.9 21.7 6.2 2.3 48.0- 5.3 4.7---- 0.2------------
1956-09-26 12.2 19.8 5.3 2.4 58.3- 0.0 2.7---- 0.0------------
1956-09-25 11.0 19.6 2.7 0.3 72.8- 2.3 1.0---- 0.0------------
1956-09-24 8.9 15.5 5.7 2.4 74.3- 1.0 3.3---- 0.0------------
1956-09-23 10.2 17.8 2.7 1.0 78.5- 1.3 2.7---- 0.0------------
1956-09-22 12.0 20.2 2.8 0.7 72.3- 0.0 0.3---- 0.0------------
1956-09-21 10.2 18.6 4.4 1.0 75.0- 0.7 1.7---- 0.0------------
1956-09-20 9.9 15.8 -0.1 -1.9 62.0- 4.0 4.0---- 0.0------------
1956-09-19 6.1 13.6 1.0 -1.3 83.3- 2.0 1.3---- 0.0------------
1956-09-18 6.0 8.5 5.2 4.6 91.5- 5.7 2.7---- 1.9------------
1956-09-17 8.0 14.2 6.7 9.2 90.0- 7.3 2.0---- 7.4------------
1956-09-16 13.2 17.2 8.6 5.6 75.8- 7.0 3.0---- 0.0------------
1956-09-15 11.6 15.7 4.6 2.7 75.3- 6.3 3.3---- 0.0------------
1956-09-14 8.6 11.2 6.0 4.8 77.8- 7.0 4.7---- 0.0------------
1956-09-13 7.4 11.2 6.1 5.6 87.3- 6.0 4.7---- 6.1------------
1956-09-12 11.0 15.1 9.5 8.4 92.0- 7.3 3.0---- 8.4------------
1956-09-11 14.6 20.3 12.1 10.7 84.0- 4.7 4.3---- 2.5------------
260.9 ms

 

Źródłem pochodzenia danych jest Instytut Meteorologii i Gospodarki Wodnej – Państwowy Instytut Badawczy. Dane Instytutu Meteorologii i Gospodarki Wodnej – Państwowego Instytutu Badawczego zostały przetworzone.

Dane źródłowe można odnaleźć na stronie https://dane.imgw.pl